createdAt,value
2017-06-16T00:00:42.605Z,66.00
2017-06-16T00:03:08.897Z,66.30
2017-06-16T00:05:35.220Z,66.50
2017-06-16T00:08:01.526Z,67.00
2017-06-16T00:10:27.871Z,68.10
2017-06-16T00:12:54.182Z,67.80
2017-06-16T00:15:20.513Z,68.40
2017-06-16T00:17:46.838Z,68.90
2017-06-16T00:20:13.121Z,69.30
2017-06-16T00:22:40.197Z,70.20
2017-06-16T00:25:06.526Z,70.20
2017-06-16T00:27:32.825Z,70.60
2017-06-16T00:29:59.881Z,71.10
2017-06-16T00:32:26.982Z,71.50
2017-06-16T00:34:53.325Z,71.40
2017-06-16T00:37:19.623Z,71.60
2017-06-16T00:39:45.978Z,71.70
2017-06-16T00:42:12.298Z,71.70
2017-06-16T00:44:38.580Z,71.80
2017-06-16T00:47:05.652Z,72.30
2017-06-16T00:49:31.942Z,72.20
2017-06-16T00:51:58.249Z,72.60
2017-06-16T00:54:24.588Z,72.80
2017-06-16T00:56:50.915Z,73.20
2017-06-16T00:59:17.267Z,73.60
2017-06-16T01:01:43.565Z,74.10
2017-06-16T01:04:09.875Z,74.50
2017-06-16T01:06:36.183Z,74.70
2017-06-16T01:09:02.500Z,75.00
2017-06-16T01:11:29.564Z,76.30
2017-06-16T01:13:55.938Z,75.70
2017-06-16T01:16:22.258Z,76.20
2017-06-16T01:18:48.572Z,77.20
2017-06-16T01:21:14.908Z,77.80
2017-06-16T01:23:41.276Z,78.30
2017-06-16T01:26:07.603Z,78.70
2017-06-16T01:28:33.912Z,78.80
2017-06-16T01:31:00.265Z,79.00
2017-06-16T01:33:26.583Z,79.10
2017-06-16T01:35:52.945Z,79.40
2017-06-16T01:38:19.279Z,79.60
2017-06-16T01:40:46.340Z,80.70
2017-06-16T01:43:13.472Z,80.00
2017-06-16T01:45:39.830Z,80.00
2017-06-16T01:48:06.169Z,80.10
2017-06-16T01:50:32.542Z,79.70
2017-06-16T01:52:58.880Z,79.50
2017-06-16T01:55:25.238Z,79.50
2017-06-16T01:57:51.568Z,79.20
2017-06-16T02:00:18.583Z,79.60
2017-06-16T02:02:44.937Z,79.60
2017-06-16T02:05:11.270Z,79.90
2017-06-16T02:07:38.355Z,79.70
2017-06-16T02:10:04.684Z,79.40
2017-06-16T02:12:30.964Z,79.30
2017-06-16T02:14:57.270Z,79.10
2017-06-16T02:17:23.588Z,78.70
2017-06-16T02:19:49.982Z,78.80
2017-06-16T02:22:17.028Z,78.50
2017-06-16T02:24:44.126Z,78.70
2017-06-16T02:27:10.468Z,78.70
2017-06-16T02:29:36.759Z,79.30
2017-06-16T02:32:03.091Z,78.90
2017-06-16T02:34:29.396Z,78.70
2017-06-16T02:36:56.464Z,78.50
2017-06-16T02:39:22.762Z,78.40
2017-06-16T02:41:49.114Z,77.80
2017-06-16T02:44:15.456Z,76.80
2017-06-16T02:46:41.768Z,76.10
2017-06-16T02:49:08.046Z,75.80
2017-06-16T02:51:34.365Z,76.40
2017-06-16T02:54:00.669Z,77.00
2017-06-16T02:56:27.059Z,77.30
2017-06-16T02:58:53.362Z,77.50
2017-06-16T03:01:19.694Z,77.80
2017-06-16T03:03:46.003Z,77.40
2017-06-16T03:06:12.301Z,77.60
2017-06-16T03:08:38.678Z,77.80
2017-06-16T03:11:05.007Z,78.00
2017-06-16T03:13:31.325Z,77.90
2017-06-16T03:15:57.641Z,78.40
2017-06-16T03:18:23.959Z,78.30
2017-06-16T03:21:10.755Z,79.20
2017-06-16T03:23:37.843Z,79.40
2017-06-16T03:26:04.151Z,79.20
2017-06-16T03:28:30.472Z,80.00
2017-06-16T03:30:56.768Z,80.60
2017-06-16T03:33:23.110Z,81.50
2017-06-16T03:35:49.372Z,81.70
2017-06-16T03:38:15.658Z,82.70
2017-06-16T03:40:41.984Z,82.90
2017-06-16T03:43:08.302Z,83.10
2017-06-16T03:45:34.631Z,83.40
2017-06-16T03:48:00.930Z,84.10
2017-06-16T03:50:27.223Z,84.30
2017-06-16T03:52:53.527Z,84.50
2017-06-16T03:55:32.241Z,84.70
2017-06-16T03:57:58.572Z,84.80
2017-06-16T04:00:24.881Z,85.00
2017-06-16T04:02:51.172Z,85.20
2017-06-16T04:05:18.235Z,85.90
2017-06-16T04:07:44.538Z,85.40
2017-06-16T04:10:10.860Z,85.40
2017-06-16T04:12:37.161Z,85.60
2017-06-16T04:15:03.465Z,85.60
2017-06-16T04:17:29.804Z,85.70
2017-06-16T04:19:56.120Z,85.60
2017-06-16T04:22:22.454Z,85.50
2017-06-16T04:24:48.765Z,85.40
2017-06-16T04:27:15.781Z,85.30
2017-06-16T04:29:42.107Z,85.30
2017-06-16T04:32:08.413Z,85.40
2017-06-16T04:34:34.759Z,85.40
2017-06-16T04:37:01.061Z,85.20
2017-06-16T04:39:27.379Z,85.00
2017-06-16T04:41:53.716Z,85.20
2017-06-16T04:44:20.044Z,85.30
2017-06-16T04:46:46.379Z,85.10
2017-06-16T04:49:12.656Z,85.10
2017-06-16T04:51:38.956Z,84.90
2017-06-16T04:54:05.284Z,84.90
2017-06-16T04:56:31.569Z,84.70
2017-06-16T04:58:57.881Z,84.60
2017-06-16T05:01:24.198Z,84.10
2017-06-16T05:03:50.533Z,83.90
2017-06-16T05:06:16.818Z,83.80
2017-06-16T05:08:43.116Z,83.80
2017-06-16T05:11:10.169Z,84.30
2017-06-16T05:13:37.216Z,83.60
2017-06-16T05:16:04.258Z,83.80
2017-06-16T05:18:31.316Z,83.30
2017-06-16T05:20:57.614Z,83.30
2017-06-16T05:23:30.223Z,82.80
2017-06-16T05:25:56.510Z,82.80
2017-06-16T05:28:22.819Z,83.00
2017-06-16T05:30:49.128Z,82.70
2017-06-16T05:33:15.436Z,82.90
2017-06-16T05:35:42.529Z,83.60
2017-06-16T05:38:08.833Z,83.60
2017-06-16T05:40:35.151Z,83.60
2017-06-16T05:43:02.214Z,84.20
2017-06-16T05:45:28.527Z,84.10
2017-06-16T05:47:54.892Z,84.20
2017-06-16T05:50:21.219Z,84.10
2017-06-16T05:52:47.527Z,84.00
2017-06-16T05:55:13.836Z,84.40
2017-06-16T05:57:40.134Z,84.40
2017-06-16T06:00:06.702Z,84.50
2017-06-16T06:02:33.758Z,84.30
2017-06-16T06:05:00.071Z,84.50
2017-06-16T06:07:26.393Z,84.40
2017-06-16T06:09:52.688Z,84.60
2017-06-16T06:12:19.042Z,84.90
2017-06-16T06:14:45.321Z,85.00
2017-06-16T06:17:11.625Z,84.30
2017-06-16T06:19:37.950Z,83.80
2017-06-16T06:22:04.273Z,84.80
2017-06-16T06:24:30.625Z,84.20
2017-06-16T06:26:57.687Z,83.60
2017-06-16T06:29:23.983Z,83.60
2017-06-16T06:31:50.306Z,83.00
2017-06-16T06:34:16.632Z,82.70
2017-06-16T06:36:43.003Z,82.20
2017-06-16T06:39:09.323Z,81.40
2017-06-16T06:41:36.354Z,78.70
2017-06-16T06:44:02.691Z,78.70
2017-06-16T06:46:30.018Z,78.20
2017-06-16T06:48:56.360Z,77.00
2017-06-16T06:51:22.631Z,76.80
2017-06-16T06:53:48.982Z,76.60
2017-06-16T06:56:15.311Z,76.40
2017-06-16T06:58:41.624Z,76.30
2017-06-16T07:01:07.909Z,75.10
2017-06-16T07:03:34.242Z,74.30
2017-06-16T07:06:00.529Z,73.30
2017-06-16T07:08:26.826Z,72.40
2017-06-16T07:10:53.145Z,72.40
2017-06-16T07:13:19.464Z,71.80
2017-06-16T07:15:45.749Z,69.90
2017-06-16T07:18:12.334Z,67.10
2017-06-16T07:20:38.667Z,68.00
2017-06-16T07:23:04.968Z,68.40
2017-06-16T07:25:31.326Z,68.40
2017-06-16T07:27:57.660Z,67.70
2017-06-16T07:30:23.965Z,67.00
2017-06-16T07:32:50.307Z,65.50
2017-06-16T07:35:16.644Z,64.80
2017-06-16T07:37:42.951Z,64.10
2017-06-16T07:40:09.300Z,61.80
2017-06-16T07:42:35.622Z,61.00
2017-06-16T07:45:01.940Z,60.00
2017-06-16T07:47:28.297Z,60.90
2017-06-16T07:49:54.607Z,61.80
2017-06-16T07:52:20.959Z,63.20
2017-06-16T07:54:47.300Z,63.80
2017-06-16T07:57:13.612Z,64.30
2017-06-16T07:59:39.935Z,60.80
2017-06-16T08:02:06.294Z,58.50
2017-06-16T08:04:32.677Z,57.60
2017-06-16T08:06:58.983Z,59.50
2017-06-16T08:09:25.347Z,58.00
2017-06-16T08:11:51.669Z,57.90
2017-06-16T08:14:17.989Z,56.70
2017-06-16T08:16:44.599Z,57.60
2017-06-16T08:19:11.661Z,56.70
2017-06-16T08:21:38.002Z,56.70
2017-06-16T08:24:04.790Z,56.60
2017-06-16T08:26:31.083Z,56.50
2017-06-16T08:28:57.406Z,55.80
2017-06-16T08:31:23.735Z,55.90
2017-06-16T08:33:50.041Z,55.60
2017-06-16T08:36:17.123Z,54.60
2017-06-16T08:38:43.493Z,54.60
2017-06-16T08:41:09.794Z,55.30
2017-06-16T08:43:36.112Z,54.40
2017-06-16T08:46:02.450Z,53.90
2017-06-16T08:48:28.787Z,54.20
2017-06-16T08:50:55.113Z,53.80
2017-06-16T08:53:21.443Z,54.40
2017-06-16T08:55:47.761Z,54.80
2017-06-16T08:58:14.092Z,54.60
2017-06-16T09:00:41.449Z,53.30
2017-06-16T09:03:07.769Z,52.90
2017-06-16T09:05:34.139Z,53.10
2017-06-16T09:08:00.449Z,52.40
2017-06-16T09:10:26.790Z,51.60
2017-06-16T09:12:53.094Z,51.00
2017-06-16T09:15:19.401Z,51.70
2017-06-16T09:17:45.743Z,51.20
2017-06-16T09:20:12.072Z,49.40
2017-06-16T09:22:38.365Z,49.60
2017-06-16T09:25:04.730Z,49.10
2017-06-16T09:27:31.048Z,48.20
2017-06-16T09:29:57.387Z,48.70
2017-06-16T09:32:23.737Z,49.40
2017-06-16T09:34:50.052Z,48.80
2017-06-16T09:37:16.372Z,49.60
2017-06-16T09:39:42.679Z,50.00
2017-06-16T09:42:09.000Z,50.20
2017-06-16T09:44:35.317Z,50.20
2017-06-16T09:47:01.637Z,50.40
2017-06-16T09:49:27.945Z,50.30
2017-06-16T09:51:54.273Z,49.60
2017-06-16T09:54:20.636Z,48.90
2017-06-16T09:56:46.947Z,50.00
2017-06-16T09:59:13.242Z,50.80
2017-06-16T10:01:40.319Z,50.30
2017-06-16T10:04:06.634Z,50.20
2017-06-16T10:06:33.016Z,50.10
2017-06-16T10:08:59.349Z,49.80
2017-06-16T10:11:25.680Z,48.70
2017-06-16T10:13:52.043Z,47.80
2017-06-16T10:16:18.385Z,47.90
2017-06-16T10:18:44.690Z,47.70
2017-06-16T10:21:11.029Z,48.10
2017-06-16T10:23:38.119Z,48.50
2017-06-16T10:26:04.474Z,48.50
2017-06-16T10:28:30.836Z,49.30
2017-06-16T10:30:57.952Z,49.90
2017-06-16T10:33:24.277Z,49.80
2017-06-16T10:35:50.617Z,49.50
2017-06-16T10:38:16.943Z,49.80
2017-06-16T10:40:43.311Z,50.50
2017-06-16T10:43:09.641Z,51.50
2017-06-16T10:45:35.965Z,52.30
2017-06-16T10:48:03.088Z,50.20
2017-06-16T10:50:29.386Z,50.10
2017-06-16T10:52:55.691Z,49.20
2017-06-16T10:55:21.986Z,49.00
2017-06-16T10:57:48.314Z,48.70
2017-06-16T11:00:14.601Z,47.40
2017-06-16T11:02:40.906Z,47.00
2017-06-16T11:05:07.966Z,47.80
2017-06-16T11:07:34.294Z,47.80
2017-06-16T11:10:00.593Z,48.70
2017-06-16T11:12:26.896Z,48.50
2017-06-16T11:14:53.208Z,47.90
2017-06-16T11:17:19.501Z,47.20
2017-06-16T11:19:46.572Z,45.50
2017-06-16T11:22:12.876Z,45.50
2017-06-16T11:24:39.253Z,45.20
2017-06-16T11:27:05.656Z,44.20
2017-06-16T11:29:32.728Z,40.20
2017-06-16T11:31:59.168Z,40.10
2017-06-16T11:34:25.499Z,41.70
2017-06-16T11:36:51.831Z,42.60
2017-06-16T11:39:18.187Z,39.40
2017-06-16T11:41:44.534Z,37.70
2017-06-16T11:44:10.909Z,38.70
2017-06-16T11:46:37.259Z,39.20
2017-06-16T11:49:03.722Z,39.10
2017-06-16T11:51:30.127Z,38.90
2017-06-16T11:53:56.575Z,39.60
2017-06-16T11:56:23.017Z,39.30
2017-06-16T11:58:49.350Z,38.70
2017-06-16T12:01:15.716Z,38.20
2017-06-16T12:03:42.142Z,37.20
2017-06-16T12:06:08.479Z,35.80
2017-06-16T12:08:34.861Z,35.90
2017-06-16T12:11:01.219Z,36.30
2017-06-16T12:13:27.687Z,36.00
2017-06-16T12:15:54.015Z,35.50
2017-06-16T12:18:20.369Z,34.70
2017-06-16T12:20:46.721Z,35.30
2017-06-16T12:23:13.074Z,34.10
2017-06-16T12:25:39.464Z,33.60
2017-06-16T12:28:05.798Z,34.80
2017-06-16T12:30:33.904Z,35.80
2017-06-16T12:33:00.278Z,34.40
2017-06-16T12:35:26.632Z,33.70
2017-06-16T12:37:53.009Z,31.90
2017-06-16T12:40:19.394Z,30.70
2017-06-16T12:42:46.019Z,31.30
2017-06-16T12:45:12.516Z,31.60
2017-06-16T12:47:38.858Z,30.10
2017-06-16T12:50:05.274Z,29.40
2017-06-16T12:52:31.624Z,29.30
2017-06-16T12:54:58.265Z,29.00
2017-06-16T12:57:24.670Z,29.20
2017-06-16T12:59:51.034Z,29.90
2017-06-16T13:02:17.420Z,29.10
2017-06-16T13:04:43.793Z,30.00
2017-06-16T13:07:10.157Z,30.20
2017-06-16T13:09:36.538Z,31.30
2017-06-16T13:12:02.928Z,31.20
2017-06-16T13:14:29.286Z,31.40
2017-06-16T13:16:55.655Z,31.60
2017-06-16T13:19:22.026Z,32.70
2017-06-16T13:21:48.396Z,31.60
2017-06-16T13:24:14.751Z,31.80
2017-06-16T13:26:41.122Z,31.10
2017-06-16T13:29:07.822Z,29.90
2017-06-16T13:31:34.901Z,28.70
2017-06-16T13:34:01.257Z,28.60
2017-06-16T13:36:27.666Z,28.80
2017-06-16T13:38:54.002Z,29.30
2017-06-16T13:41:20.433Z,28.70
2017-06-16T13:43:46.793Z,29.50
2017-06-16T13:46:13.169Z,29.90
2017-06-16T13:48:39.549Z,29.00
2017-06-16T13:51:05.912Z,29.00
2017-06-16T13:53:32.334Z,29.10
2017-06-16T13:55:58.717Z,29.20
2017-06-16T13:58:25.089Z,29.20
2017-06-16T14:00:51.472Z,28.60
2017-06-16T14:03:17.843Z,28.30
2017-06-16T14:05:44.225Z,27.70
2017-06-16T14:08:10.531Z,27.70
2017-06-16T14:10:36.886Z,26.90
2017-06-16T14:13:03.228Z,28.00
2017-06-16T14:15:29.602Z,28.50
2017-06-16T14:17:56.717Z,29.70
2017-06-16T14:20:23.085Z,29.40
2017-06-16T14:22:50.184Z,29.90
2017-06-16T14:25:16.547Z,29.80
2017-06-16T14:27:42.889Z,29.80
2017-06-16T14:30:09.274Z,30.30
2017-06-16T14:32:35.643Z,30.30
2017-06-16T14:35:02.777Z,29.40
2017-06-16T14:37:29.148Z,29.40
2017-06-16T14:39:55.513Z,29.90
2017-06-16T14:42:21.982Z,30.10
2017-06-16T14:44:48.477Z,30.50
2017-06-16T14:47:14.841Z,29.20
2017-06-16T14:49:41.266Z,29.30
2017-06-16T14:52:07.623Z,29.50
2017-06-16T14:54:34.095Z,29.40
2017-06-16T14:57:00.483Z,30.10
2017-06-16T14:59:27.592Z,29.40
2017-06-16T15:01:53.991Z,29.30
2017-06-16T15:04:20.344Z,28.80
2017-06-16T15:06:46.794Z,27.90
2017-06-16T15:09:13.247Z,28.30
2017-06-16T15:11:40.368Z,28.30
2017-06-16T15:14:06.760Z,28.30
2017-06-16T15:16:33.145Z,27.80
2017-06-16T15:18:59.517Z,27.40
2017-06-16T15:21:32.098Z,28.30
2017-06-16T15:23:58.504Z,27.10
2017-06-16T15:26:24.887Z,27.70
2017-06-16T15:28:51.235Z,28.20
2017-06-16T15:31:17.615Z,27.50
2017-06-16T15:33:44.024Z,28.00
2017-06-16T15:36:10.428Z,28.60
2017-06-16T15:38:36.812Z,28.50
2017-06-16T15:41:03.202Z,28.20
2017-06-16T15:43:29.598Z,27.80
2017-06-16T15:45:56.078Z,28.30
2017-06-16T15:48:22.472Z,27.70
2017-06-16T15:50:48.830Z,27.20
2017-06-16T15:53:15.220Z,27.30
2017-06-16T15:55:41.603Z,27.90
2017-06-16T15:58:07.940Z,27.90
2017-06-16T16:00:34.338Z,28.00
2017-06-16T16:03:00.741Z,28.80
2017-06-16T16:05:27.885Z,29.30
2017-06-16T16:07:54.281Z,29.30
2017-06-16T16:10:20.681Z,29.50
2017-06-16T16:12:48.355Z,29.80
2017-06-16T16:15:14.967Z,29.10
2017-06-16T16:17:41.332Z,29.50
2017-06-16T16:20:07.713Z,29.60
2017-06-16T16:22:34.088Z,30.30
2017-06-16T16:25:00.455Z,31.00
2017-06-16T16:27:26.840Z,31.10
2017-06-16T16:29:53.180Z,31.00
2017-06-16T16:32:19.590Z,31.50
2017-06-16T16:34:46.014Z,31.30
2017-06-16T16:37:13.138Z,33.20
2017-06-16T16:39:39.510Z,33.20
2017-06-16T16:42:05.871Z,33.90
2017-06-16T16:44:32.323Z,35.10
2017-06-16T16:46:58.674Z,35.70
2017-06-16T16:49:24.965Z,35.70
2017-06-16T16:51:51.373Z,36.20
2017-06-16T16:54:17.705Z,37.00
2017-06-16T16:56:44.087Z,37.60
2017-06-16T16:59:10.441Z,38.00
2017-06-16T17:01:36.775Z,38.50
2017-06-16T17:04:03.171Z,39.10
2017-06-16T17:06:29.508Z,39.30
2017-06-16T17:09:02.873Z,39.60
2017-06-16T17:11:29.241Z,40.30
2017-06-16T17:13:56.335Z,41.20
2017-06-16T17:16:22.741Z,41.60
2017-06-16T17:18:49.125Z,42.00
2017-06-16T17:21:15.470Z,41.80
2017-06-16T17:23:41.801Z,42.20
2017-06-16T17:26:08.166Z,42.70
2017-06-16T17:28:34.519Z,42.10
2017-06-16T17:31:00.868Z,42.00
2017-06-16T17:33:27.215Z,42.10
2017-06-16T17:35:53.611Z,42.30
2017-06-16T17:38:20.825Z,42.30
2017-06-16T17:40:47.230Z,42.50
2017-06-16T17:43:14.369Z,42.10
2017-06-16T17:45:40.847Z,42.10
2017-06-16T17:48:07.236Z,42.50
2017-06-16T17:50:33.674Z,42.60
2017-06-16T17:53:00.778Z,43.40
2017-06-16T17:55:27.142Z,43.40
2017-06-16T17:57:53.496Z,43.50
2017-06-16T18:00:20.619Z,44.10
2017-06-16T18:02:47.027Z,44.00
2017-06-16T18:05:13.396Z,44.80
2017-06-16T18:07:40.483Z,46.00
2017-06-16T18:10:06.904Z,45.90
2017-06-16T18:12:33.225Z,45.70
2017-06-16T18:14:59.569Z,46.20
2017-06-16T18:17:26.079Z,46.80
2017-06-16T18:19:52.547Z,46.80
2017-06-16T18:22:18.954Z,46.40
2017-06-16T18:24:45.378Z,46.00
2017-06-16T18:27:11.829Z,46.30
2017-06-16T18:29:38.239Z,46.60
2017-06-16T18:32:04.650Z,46.90
2017-06-16T18:34:31.769Z,47.20
2017-06-16T18:36:58.220Z,47.20
2017-06-16T18:39:25.378Z,47.70
2017-06-16T18:41:52.474Z,48.00
2017-06-16T18:44:18.901Z,48.00
2017-06-16T18:46:45.256Z,48.00
2017-06-16T18:49:11.685Z,48.40
2017-06-16T18:51:38.065Z,48.50
2017-06-16T18:54:04.500Z,48.80
2017-06-16T18:56:30.868Z,48.90
2017-06-16T18:59:04.606Z,49.20
2017-06-16T19:01:31.730Z,49.50
2017-06-16T19:03:58.534Z,49.80
2017-06-16T19:06:25.101Z,49.90
2017-06-16T19:08:51.478Z,50.00
2017-06-16T19:11:17.880Z,50.20
2017-06-16T19:13:44.231Z,50.50
2017-06-16T19:16:10.635Z,50.70
2017-06-16T19:18:37.046Z,50.80
2017-06-16T19:21:03.409Z,50.90
2017-06-16T19:23:30.570Z,51.20
2017-06-16T19:25:57.653Z,52.00
2017-06-16T19:28:24.067Z,51.40
2017-06-16T19:30:50.442Z,51.30
2017-06-16T19:33:16.786Z,51.60
2017-06-16T19:35:43.154Z,52.30
2017-06-16T19:38:09.535Z,52.10
2017-06-16T19:40:35.906Z,52.20
2017-06-16T19:43:02.295Z,52.50
2017-06-16T19:45:29.043Z,52.60
2017-06-16T19:47:55.413Z,52.70
2017-06-16T19:50:21.869Z,53.00
2017-06-16T19:52:48.265Z,53.10
2017-06-16T19:55:14.624Z,53.30
2017-06-16T19:57:41.023Z,53.40
2017-06-16T20:00:07.373Z,53.30
2017-06-16T20:02:33.746Z,53.50
2017-06-16T20:05:00.143Z,53.70
2017-06-16T20:07:26.568Z,53.70
2017-06-16T20:09:52.951Z,53.90
2017-06-16T20:12:19.440Z,54.10
2017-06-16T20:14:45.805Z,54.60
2017-06-16T20:17:12.147Z,54.30
2017-06-16T20:19:38.548Z,54.30
2017-06-16T20:22:04.958Z,54.50
2017-06-16T20:24:31.442Z,54.70
2017-06-16T20:26:58.559Z,55.00
2017-06-16T20:29:24.906Z,55.00
2017-06-16T20:31:51.266Z,55.10
2017-06-16T20:34:17.622Z,55.20
2017-06-16T20:36:43.986Z,55.50
2017-06-16T20:39:10.384Z,55.60
2017-06-16T20:41:36.783Z,55.80
2017-06-16T20:44:03.219Z,55.70
2017-06-16T20:46:29.594Z,55.80
2017-06-16T20:48:55.983Z,56.00
2017-06-16T20:51:22.321Z,55.90
2017-06-16T20:53:48.680Z,55.90
2017-06-16T20:56:15.049Z,56.10
2017-06-16T20:58:41.475Z,56.20
2017-06-16T21:01:08.609Z,56.50
2017-06-16T21:03:34.989Z,56.50
2017-06-16T21:06:01.406Z,56.60
2017-06-16T21:08:27.790Z,56.60
2017-06-16T21:10:54.180Z,56.90
2017-06-16T21:13:20.542Z,57.00
2017-06-16T21:15:47.311Z,57.20
2017-06-16T21:18:13.651Z,57.30
2017-06-16T21:20:40.780Z,57.40
2017-06-16T21:23:07.144Z,57.40
2017-06-16T21:25:33.494Z,57.50
2017-06-16T21:27:59.835Z,57.60
2017-06-16T21:30:26.230Z,57.70
2017-06-16T21:32:52.581Z,57.60
2017-06-16T21:35:18.946Z,57.80
2017-06-16T21:37:45.305Z,57.90
2017-06-16T21:40:12.409Z,57.60
2017-06-16T21:42:38.774Z,57.60
2017-06-16T21:45:05.960Z,57.60
2017-06-16T21:47:32.328Z,57.70
2017-06-16T21:49:58.699Z,57.60
2017-06-16T21:52:25.891Z,57.40
2017-06-16T21:54:52.253Z,57.30
2017-06-16T21:57:18.575Z,57.00
2017-06-16T21:59:44.938Z,56.90
2017-06-16T22:02:11.335Z,57.10
2017-06-16T22:04:37.654Z,57.10
2017-06-16T22:07:04.053Z,57.10
2017-06-16T22:09:30.427Z,57.20
2017-06-16T22:11:56.842Z,57.20
2017-06-16T22:14:23.237Z,57.10
2017-06-16T22:16:49.658Z,57.10
2017-06-16T22:19:16.072Z,57.30
2017-06-16T22:21:42.549Z,57.10
2017-06-16T22:24:08.909Z,57.20
2017-06-16T22:26:35.240Z,57.20
2017-06-16T22:29:01.597Z,57.30
2017-06-16T22:31:27.949Z,57.30
2017-06-16T22:33:54.315Z,57.60
2017-06-16T22:36:20.973Z,57.60
2017-06-16T22:38:47.328Z,57.60
2017-06-16T22:41:13.678Z,57.80
2017-06-16T22:43:40.129Z,57.60
2017-06-16T22:46:06.538Z,57.80
2017-06-16T22:48:32.891Z,57.90
2017-06-16T22:50:59.251Z,58.20
2017-06-16T22:53:25.597Z,58.10
2017-06-16T22:55:52.024Z,58.00
2017-06-16T22:58:26.177Z,58.30
2017-06-16T23:00:52.862Z,58.80
2017-06-16T23:03:19.221Z,58.20
2017-06-16T23:05:45.589Z,58.40
2017-06-16T23:08:11.936Z,58.50
2017-06-16T23:10:39.532Z,58.60
2017-06-16T23:13:05.924Z,58.50
2017-06-16T23:15:32.340Z,58.60
2017-06-16T23:17:58.708Z,58.70
2017-06-16T23:20:25.056Z,58.80
2017-06-16T23:22:51.456Z,58.90
2017-06-16T23:25:17.878Z,58.90
2017-06-16T23:27:44.231Z,58.90
2017-06-16T23:30:10.599Z,59.00
2017-06-16T23:32:36.941Z,59.20
2017-06-16T23:35:03.308Z,59.20
2017-06-16T23:37:30.486Z,59.30
2017-06-16T23:39:56.859Z,59.30
2017-06-16T23:42:23.253Z,59.50
2017-06-16T23:44:49.673Z,59.40
2017-06-16T23:47:16.047Z,59.60
2017-06-16T23:49:42.420Z,59.60
2017-06-16T23:52:08.860Z,59.40
2017-06-16T23:54:35.186Z,59.50
2017-06-16T23:57:01.526Z,59.80
2017-06-16T23:59:27.977Z,59.90
